Arrey, NM (87930)

2:07 AM MDT on July 14, 2014 (GMT -0600)
Truth Or Consequences Municipal (KTCS) Elev 4859 ft | 33.24 °N, 107.27 °W | Change Station

Current weather conditions updated 14 minutes ago

Clear
Clear
70 °F
Feels Like 70 °F
N
6
Wind Variable Wind from West

Today is forecast to be nearly the same temperature as yesterday.

Today
High -- | Low -- °F
--% Chance of Precip.
Yesterday
High -- | Low -- °F
Precip. -- in
6:12 AM 8:18 PM
Waning Gibbous, 95% visible
Pressure 29.96 in
Visibility 10.0 miles
Clouds Clear
Dew Point 56 °F
Humidity 61%
Rainfall 0.00 in
Snow Depth Not available.
UV 0 out of 12
Pollen 3.70 out of 12
Air Quality Not available.
Flu Activity Sporadic
METAR KTCS 140753Z AUTO 26005KT 10SM CLR 21/13 A3022 RMK AO2 SLP144 T02110133 TSNO

More Conditions Fewer Conditions

Pressure 29.96 in
Visibility 10.0 miles
Clouds Clear
Dew Point 56 °F
Humidity 61%
Rainfall 0.00 in
Snow Depth Not available.
UV 0 out of 12
Pollen 3.70 out of 12
Air Quality Not available.
Flu Activity Sporadic
METAR KTCS 140753Z AUTO 26005KT 10SM CLR 21/13 A3022 RMK AO2 SLP144 T02110133 TSNO

More Conditions Fewer Conditions

Nowcast | as of 12:32 am MDT on July 14, 2014

Radar is currently showing a broken line of showers and embedded thunderstorms stretching from near Jornada range in northern Dona Ana County westward to near Silver City in Grant County. Individual thunderstorms within the line will continue to produce occasional cloud to ground lightning and brief periods of heavy rainfall that could result in ponding of water on roads as well as areas of lower visibilities. The band of showers and storms is moving west northwest at around 15mph resulting in repeat showers and storms for some locations.

×

10-Day Weather Forecast

Almanac

Astronomy

Jul. 14, 2014 Rise Set
Actual Time 6:12 AM MDT 8:18 PM MDT
Civil Twilight 5:44 AM MDT 8:46 PM MDT
Nautical Twilight 5:09 AM MDT 9:20 PM MDT
Astronomical Twilight 4:33 AM MDT 9:57 PM MDT
Moon 10:03 PM MDT 8:47 AM MDT
Length of Visible Light 15h 02m
Length of Day
14h 06m
Tomorrow will be 1m 0s shorter.
Waning Gibbous, 95% of the Moon is Illuminated
Today
Waning Gibbous
Jul 18
Last Quarter
Jul 26
New
Aug 3
First Quarter
Aug 10
Full

Today's Extremes

State Highs State Lows

Community

WunderPhotos

Upload Photos

1,733,572 photos uploaded!

Nearby

Snow Depth

Station Depth Elevation
Lookout Mountain 0 in 8500 ft
Silver Creek Divide 1 in 9000 ft
Sierra Blanca 1 in 10280 ft
Frisco Divide 0 in 8000 ft
Senorita Divide #2 0 in 8600 ft

Earthquake Activity

City Distance Mag. Time & Date
No recent earthquake activity has been reported nearby.
Minimum magnitude displayed is 2.5.

Coastal Water Temperatures

Place Temperature
No Stations Reporting

Nearby Weather Stations

There are no personal weather stations in this area.